Time;durP1;ratioP1;P1;durP2;ratioP2;P2;SDS_P1;SDS_P2;PMS_P1;PMS_P2;Temp;Humidity;BMP_temperature;BMP_pressure;BME280_temperature;BME280_humidity;BME280_pressure;Samples;Min_cycle;Max_cycle;Signal;HPM_P1;HPM_P2
2021/05/21 00:01:49;;;;;;;3.13;0.10;;;10.70;99.90;;;10.10;75.57;101043.75;4951517;29;20407;-52
2021/05/21 00:04:15;;;;;;;1.38;0.10;;;10.60;99.90;;;10.09;75.82;101036.88;4951175;29;20031;-51
2021/05/21 00:06:42;;;;;;;1.42;0.10;;;10.60;99.90;;;10.09;75.83;101029.91;4943855;29;20047;-55
2021/05/21 00:09:08;;;;;;;3.85;0.20;;;10.60;99.90;;;10.10;76.19;101039.38;4951151;29;20130;-55
2021/05/21 00:11:34;;;;;;;2.33;0.10;;;10.60;99.90;;;10.05;76.48;101030.28;4951179;29;20035;-57
2021/05/21 00:14:00;;;;;;;0.57;0.20;;;10.60;99.90;;;10.06;76.19;101022.34;4951093;29;20039;-50
2021/05/21 00:16:26;;;;;;;1.80;0.10;;;10.60;99.90;;;10.04;76.43;101034.66;4950645;29;21391;-55
2021/05/21 00:18:52;;;;;;;1.95;0.10;;;10.50;99.90;;;10.03;76.56;101040.00;4951109;29;20123;-52
2021/05/21 00:21:19;;;;;;;1.02;0.10;;;10.50;99.90;;;9.99;76.83;101026.41;4950471;29;20042;-56
2021/05/21 00:23:45;;;;;;;0.40;0.20;;;10.50;99.90;;;9.95;77.18;101036.25;4951320;29;20035;-51
2021/05/21 00:26:12;;;;;;;0.47;0.10;;;10.50;99.90;;;9.97;77.33;101033.50;4943215;29;20436;-52
2021/05/21 00:28:37;;;;;;;1.15;0.20;;;10.50;99.90;;;9.94;77.47;101034.59;4950284;28;20050;-50
2021/05/21 00:31:03;;;;;;;0.55;0.10;;;10.50;99.90;;;9.92;77.80;101040.91;4951174;29;20039;-54
2021/05/21 00:33:29;;;;;;;2.33;0.20;;;10.50;99.90;;;9.86;78.14;101036.19;4950469;29;20023;-57
2021/05/21 00:35:55;;;;;;;0.73;0.10;;;10.40;99.90;;;9.83;78.35;101054.66;4951258;29;20461;-57
2021/05/21 00:38:21;;;;;;;0.63;0.20;;;10.30;99.90;;;9.78;78.89;101046.41;4950462;29;20501;-53
2021/05/21 00:40:47;;;;;;;0.60;0.10;;;10.30;99.90;;;9.74;79.05;101048.44;4950846;29;20038;-52
2021/05/21 00:43:16;;;;;;;1.50;0.10;;;10.30;99.90;;;9.73;79.30;101041.56;4950775;29;20032;-51
2021/05/21 00:45:43;;;;;;;2.83;0.10;;;10.30;99.90;;;9.72;79.35;101042.53;4950599;29;20117;-56
2021/05/21 00:48:09;;;;;;;1.63;0.10;;;10.30;99.90;;;9.72;79.59;101041.69;4950714;29;20098;-55
2021/05/21 00:50:35;;;;;;;1.30;0.10;;;10.20;99.90;;;9.73;79.69;101032.94;4940886;29;20093;-57
2021/05/21 00:53:04;;;;;;;0.68;0.20;;;10.20;99.90;;;9.76;79.07;101035.28;4939527;29;20041;-54
2021/05/21 00:55:31;;;;;;;0.95;0.10;;;10.30;99.90;;;9.80;78.78;101036.69;4947444;29;20462;-57
2021/05/21 00:57:57;;;;;;;0.45;0.10;;;10.30;99.90;;;9.84;78.37;101043.31;4921999;29;20066;-54
2021/05/21 01:00:23;;;;;;;0.30;0.10;;;10.30;99.90;;;9.79;78.44;101043.69;4946749;29;20043;-57
2021/05/21 01:02:49;;;;;;;1.85;0.10;;;10.30;99.90;;;9.68;78.26;101037.69;4949990;29;20047;-57
2021/05/21 01:05:15;;;;;;;0.40;0.10;;;10.30;99.90;;;9.62;77.96;101045.03;4950694;29;20082;-52
2021/05/21 01:07:41;;;;;;;3.65;0.20;;;10.20;99.90;;;9.58;78.36;101043.63;4950057;29;20043;-54
2021/05/21 01:10:08;;;;;;;3.55;0.30;;;10.10;99.90;;;9.57;78.14;101052.38;4950315;29;20039;-51
2021/05/21 01:12:34;;;;;;;1.23;0.10;;;10.10;99.90;;;9.63;77.62;101051.06;4950089;29;20035;-52
2021/05/21 01:14:59;;;;;;;4.57;0.20;;;10.10;99.90;;;9.72;77.17;101054.72;4950297;29;20158;-58
2021/05/21 01:17:26;;;;;;;1.38;0.10;;;10.20;99.90;;;9.84;76.82;101053.72;4949971;29;20529;-51
2021/05/21 01:19:53;;;;;;;1.67;0.17;;;10.30;99.90;;;9.87;76.43;101043.88;4949447;29;20431;-57
2021/05/21 01:22:20;;;;;;;0.38;0.05;;;10.40;99.90;;;9.91;76.55;101045.28;4949870;29;20031;-54
2021/05/21 01:24:46;;;;;;;5.00;0.10;;;10.40;99.90;;;9.91;76.68;101041.84;4949651;29;20061;-53
2021/05/21 01:27:12;;;;;;;7.22;0.20;;;10.40;99.90;;;9.89;76.96;101047.19;4950044;29;20090;-59
2021/05/21 01:29:40;;;;;;;1.08;0.10;;;10.40;99.90;;;9.86;77.28;101039.63;4949869;29;20035;-51
2021/05/21 01:32:11;;;;;;;2.22;0.20;;;10.40;99.90;;;9.85;77.02;101042.34;4949561;29;20471;-54
2021/05/21 01:34:38;;;;;;;0.75;0.10;;;10.40;99.90;;;9.85;77.31;101040.56;4949609;29;20047;-57
2021/05/21 01:37:18;;;;;;;2.88;0.30;;;10.40;99.90;;;9.83;78.80;101039.06;4949490;29;20043;-59
2021/05/21 01:39:44;;;;;;;0.30;0.10;;;10.30;99.90;;;9.81;79.71;101048.75;4948542;28;20039;-59
2021/05/21 01:42:14;;;;;;;2.22;0.10;;;10.40;99.90;;;9.80;81.14;101041.91;4949400;29;20047;-58
2021/05/21 01:44:41;;;;;;;0.50;0.20;;;10.30;99.90;;;9.79;80.95;101042.84;4949988;29;20067;-55
2021/05/21 01:47:11;;;;;;;2.58;0.20;;;10.30;99.90;;;9.77;80.96;101036.94;4949422;29;20039;-56
2021/05/21 01:49:37;;;;;;;2.50;0.30;;;10.30;99.90;;;9.79;80.36;101032.44;4941504;29;20070;-53
2021/05/21 01:52:03;;;;;;;1.40;0.10;;;10.30;99.90;;;9.78;80.03;101029.00;4949029;29;20063;-57
2021/05/21 01:54:30;;;;;;;1.17;0.15;;;10.30;99.90;;;9.77;79.82;101029.97;4949726;29;20415;-52
2021/05/21 01:57:01;;;;;;;0.68;0.13;;;10.30;99.90;;;9.76;79.55;101020.50;4949081;29;20055;-59
2021/05/21 01:59:27;;;;;;;0.85;0.10;;;10.30;99.90;;;9.77;79.42;101022.16;4949234;29;20151;-58
2021/05/21 02:01:54;;;;;;;0.40;0.10;;;10.30;99.90;;;9.75;79.88;101007.63;4949523;29;20036;-53
2021/05/21 02:04:31;;;;;;;1.60;0.10;;;10.30;99.90;;;9.73;79.38;101006.91;4948731;29;20039;-56
2021/05/21 02:06:58;;;;;;;0.60;0.10;;;10.20;99.90;;;9.70;79.06;101008.00;4949176;29;20503;-57
2021/05/21 02:09:24;;;;;;;0.40;0.10;;;10.20;99.90;;;9.70;78.72;101005.41;4948692;29;20122;-59
2021/05/21 02:11:50;;;;;;;0.60;0.10;;;10.20;99.90;;;9.71;78.13;101007.03;4949021;29;20070;-57
2021/05/21 02:14:17;;;;;;;2.22;0.20;;;10.20;99.90;;;9.62;78.47;101003.41;4948472;29;20451;-56
2021/05/21 02:16:43;;;;;;;2.90;0.10;;;10.20;99.90;;;9.41;79.80;101005.19;4948989;29;20142;-57
2021/05/21 02:19:09;;;;;;;0.77;0.10;;;10.00;99.90;;;9.23;80.50;101001.44;4948506;29;20035;-56
2021/05/21 02:21:36;;;;;;;1.65;0.20;;;9.90;99.90;;;9.15;80.59;101003.81;4949458;29;20102;-58
2021/05/21 02:24:06;;;;;;;3.28;0.30;;;9.80;99.90;;;9.14;80.79;101012.56;4949208;29;20046;-52
2021/05/21 02:26:35;;;;;;;1.15;0.30;;;9.70;99.90;;;9.27;80.03;101000.25;4948812;29;20074;-62
2021/05/21 02:29:02;;;;;;;1.30;0.17;;;9.80;99.90;;;9.31;79.28;101005.09;4941050;29;20506;-58
2021/05/21 02:31:28;;;;;;;1.80;0.40;;;9.80;99.90;;;9.38;79.24;100987.22;4948614;29;20402;-57
2021/05/21 02:33:53;;;;;;;3.55;0.40;;;9.90;99.90;;;9.47;78.91;100994.25;4948716;29;20214;-53
2021/05/21 02:36:19;;;;;;;1.80;0.28;;;10.00;99.90;;;9.43;78.88;100982.47;4948258;29;20035;-54
2021/05/21 02:38:45;;;;;;;2.38;0.20;;;10.00;99.90;;;9.36;79.17;100985.69;4948779;29;20055;-57
2021/05/21 02:43:46;;;;;;;1.20;0.20;;;9.90;99.90;;;9.09;80.06;100986.13;4816983;23;20117;-55
2021/05/21 02:46:12;;;;;;;0.60;0.20;;;9.70;99.90;;;8.98;80.34;100995.59;4987470;28;20038;-53
2021/05/21 02:48:38;;;;;;;2.70;0.28;;;9.60;99.90;;;8.92;80.61;100995.28;4987016;28;20068;-58
2021/05/21 02:51:04;;;;;;;0.40;0.20;;;9.50;99.90;;;8.90;80.67;100992.78;4987028;28;20560;-54
2021/05/21 02:53:31;;;;;;;0.63;0.20;;;9.50;99.90;;;8.82;81.00;100986.53;4986685;28;20030;-53
2021/05/21 02:55:57;;;;;;;3.13;0.20;;;9.40;99.90;;;8.75;81.68;100981.00;4986994;28;20430;-51
2021/05/21 02:58:22;;;;;;;1.55;0.10;;;9.40;99.90;;;8.80;81.05;100978.88;4987065;28;20041;-52
2021/05/21 03:00:48;;;;;;;0.73;0.10;;;9.40;99.90;;;8.89;80.96;100978.16;4969112;28;20042;-54
2021/05/21 03:03:14;;;;;;;1.58;0.15;;;9.40;99.90;;;8.99;80.74;100971.25;4987109;28;20041;-55
2021/05/21 03:05:40;;;;;;;0.77;0.30;;;9.50;99.90;;;9.13;80.56;100970.16;4986708;28;20114;-52
2021/05/21 03:08:06;;;;;;;0.65;0.30;;;9.60;99.90;;;9.24;79.88;100966.69;4987031;28;20379;-56
2021/05/21 03:10:32;;;;;;;2.05;0.10;;;9.70;99.90;;;9.27;79.57;100958.66;4986776;28;20062;-59
2021/05/21 03:12:58;;;;;;;0.95;0.17;;;9.80;99.90;;;9.25;79.93;100956.16;4986928;28;20069;-54
2021/05/21 03:15:26;;;;;;;0.38;0.10;;;9.80;99.90;;;9.24;80.28;100956.28;4987227;28;20113;-58
2021/05/21 03:17:52;;;;;;;1.10;0.20;;;9.80;99.90;;;9.26;79.97;100949.19;4986810;28;20053;-53
2021/05/21 03:20:18;;;;;;;1.13;0.17;;;9.80;99.90;;;9.24;80.21;100956.28;4987120;28;20042;-55
2021/05/21 03:22:44;;;;;;;1.80;0.20;;;9.80;99.90;;;9.26;79.73;100952.63;4986743;28;20046;-61
2021/05/21 03:25:11;;;;;;;0.95;0.10;;;9.80;99.90;;;9.30;79.43;100950.59;4986974;28;20066;-51
2021/05/21 03:27:38;;;;;;;1.75;0.10;;;9.80;99.90;;;9.41;78.92;100947.13;4986678;28;20753;-54
2021/05/21 03:30:08;;;;;;;2.58;0.20;;;9.90;99.90;;;9.47;78.06;100955.22;4987077;28;20582;-53
2021/05/21 03:32:34;;;;;;;5.55;2.08;;;10.00;99.90;;;9.49;78.09;100953.34;4987419;28;20042;-57
2021/05/21 03:35:00;;;;;;;2.05;0.20;;;10.00;99.90;;;9.55;78.08;100950.22;4986861;28;20125;-61
2021/05/21 03:37:26;;;;;;;3.67;0.20;;;10.10;99.90;;;9.61;77.81;100946.31;4986995;28;20121;-49
2021/05/21 03:39:52;;;;;;;0.57;0.20;;;10.10;99.90;;;9.63;77.87;100952.22;4986256;28;20034;-58
2021/05/21 03:42:18;;;;;;;1.38;0.30;;;10.20;99.90;;;9.65;77.91;100951.13;4986630;28;20489;-55
2021/05/21 03:44:44;;;;;;;1.23;0.63;;;10.20;99.90;;;9.66;78.19;100946.75;4987102;28;20038;-56
2021/05/21 03:47:09;;;;;;;1.90;0.40;;;10.20;99.90;;;9.71;77.95;100943.78;4986501;28;20030;-53
2021/05/21 03:49:35;;;;;;;1.45;0.32;;;10.20;99.90;;;9.75;77.66;100948.59;4987006;28;20030;-53
2021/05/21 03:52:01;;;;;;;0.70;0.30;;;10.30;99.90;;;9.84;77.21;100953.03;4986736;28;20062;-57
2021/05/21 03:54:27;;;;;;;1.98;0.20;;;10.30;99.90;;;9.91;76.83;100955.97;4986837;28;20098;-55
2021/05/21 03:56:53;;;;;;;0.93;0.20;;;10.40;99.90;;;9.95;76.79;100949.50;4986205;28;20545;-55
2021/05/21 03:59:20;;;;;;;2.30;0.20;;;10.60;99.90;;;10.02;76.61;100953.25;4986208;28;20302;-54
2021/05/21 04:01:47;;;;;;;1.17;0.20;;;10.60;99.90;;;10.15;75.61;100959.09;4986852;28;20048;-53
2021/05/21 04:04:14;;;;;;;0.70;0.20;;;10.70;99.90;;;10.18;75.61;100958.00;4989749;28;20121;-52
2021/05/21 04:06:40;;;;;;;1.75;0.10;;;10.80;99.90;;;10.33;74.20;100955.91;4990363;28;20031;-56
2021/05/21 04:09:07;;;;;;;0.28;0.10;;;10.90;99.90;;;10.84;72.71;100956.63;4989798;28;20067;-51
2021/05/21 04:11:38;;;;;;;2.00;0.20;;;11.40;99.90;;;11.41;71.79;100951.56;4990214;28;20348;-50
2021/05/21 04:14:09;;;;;;;1.30;0.30;;;12.20;99.90;;;12.02;69.83;100954.66;4989741;28;20049;-55
2021/05/21 04:16:35;;;;;;;2.50;0.20;;;13.00;99.90;;;12.73;67.81;100954.91;4990289;28;20042;-56
2021/05/21 04:19:01;;;;;;;0.98;0.15;;;13.90;99.90;;;12.98;67.32;100958.59;4989567;28;20394;-55
2021/05/21 04:21:27;;;;;;;1.75;0.20;;;14.40;99.90;;;12.21;68.87;100954.59;4989592;28;20092;-54
2021/05/21 04:23:55;;;;;;;1.92;0.20;;;13.80;99.90;;;11.42;71.74;100967.06;4971561;28;20046;-55
2021/05/21 04:26:21;;;;;;;1.08;0.20;;;12.90;99.90;;;11.24;72.45;100961.75;4989419;28;20121;-50
2021/05/21 04:28:48;;;;;;;2.28;0.10;;;12.40;99.90;;;11.32;71.76;100961.06;4989920;28;20079;-50
2021/05/21 04:31:16;;;;;;;0.52;0.22;;;12.30;99.90;;;11.16;72.22;100966.81;4989455;28;20173;-53
2021/05/21 04:33:43;;;;;;;0.45;0.10;;;12.10;99.90;;;11.00;73.31;100971.72;4989641;28;20088;-53
2021/05/21 04:36:09;;;;;;;1.58;0.32;;;12.00;99.90;;;11.10;72.98;100967.34;4989398;28;20522;-59
2021/05/21 04:38:35;;;;;;;0.30;0.10;;;11.90;99.90;;;11.00;73.07;100963.91;4989782;28;20042;-55
2021/05/21 04:41:02;;;;;;;1.88;0.20;;;12.00;99.90;;;11.08;72.74;100958.00;4989733;28;20026;-55
2021/05/21 04:43:28;;;;;;;5.43;0.28;;;12.00;99.90;;;11.16;72.31;100964.19;4989625;28;20141;-51
2021/05/21 04:45:55;;;;;;;0.77;0.10;;;12.10;99.90;;;11.22;72.23;100963.66;4989643;28;20053;-54
2021/05/21 04:48:21;;;;;;;2.45;0.20;;;12.20;99.90;;;11.27;72.53;100966.69;4989237;28;20038;-53
2021/05/21 04:50:48;;;;;;;0.52;0.20;;;12.20;99.90;;;11.30;72.38;100963.81;4989627;28;20034;-57
2021/05/21 04:53:14;;;;;;;0.95;0.10;;;12.20;99.90;;;11.52;70.62;100967.91;4989160;28;20093;-51
2021/05/21 04:55:41;;;;;;;0.40;0.10;;;12.40;99.90;;;11.96;69.20;100968.28;4989570;28;20038;-50
2021/05/21 04:58:07;;;;;;;0.30;0.10;;;12.90;99.90;;;12.62;67.08;100958.53;4989176;28;20042;-57
2021/05/21 05:00:34;;;;;;;1.33;0.20;;;13.70;99.90;;;13.39;65.47;100969.47;4989555;28;20086;-52
2021/05/21 05:03:17;;;;;;;0.40;0.10;;;14.60;99.90;;;13.84;62.82;100974.56;4989278;28;20034;-53
2021/05/21 05:05:44;;;;;;;1.73;0.10;;;15.20;97.50;;;14.01;62.28;100972.88;4989489;28;20066;-54
2021/05/21 05:08:14;;;;;;;0.57;0.10;;;15.50;95.70;;;14.30;61.29;100973.34;4968353;28;20062;-59
2021/05/21 05:10:41;;;;;;;0.20;0.10;;;15.90;93.50;;;14.82;60.51;100968.84;4982125;28;20050;-56
2021/05/21 05:13:07;;;;;;;0.73;0.10;;;16.40;93.00;;;14.72;60.59;100967.31;4989042;28;20466;-48
2021/05/21 05:15:34;;;;;;;1.73;0.10;;;16.90;90.20;;;14.64;59.69;100967.31;4988653;28;20043;-54
2021/05/21 05:18:01;;;;;;;0.22;0.03;;;16.70;88.90;;;14.96;59.49;100969.22;4988934;28;20038;-53
2021/05/21 05:20:27;;;;;;;0.17;0.10;;;16.80;89.00;;;15.35;57.23;100970.25;4988789;28;20041;-53
2021/05/21 05:22:55;;;;;;;0.10;0.00;;;17.30;83.70;;;15.33;57.22;100966.97;4988791;28;20046;-56
2021/05/21 05:25:21;;;;;;;0.98;0.00;;;17.20;83.20;;;14.84;58.01;100972.13;4988439;28;20053;-54
2021/05/21 05:27:51;;;;;;;0.50;0.10;;;17.00;83.10;;;15.52;57.15;100960.56;4989294;28;20088;-56
2021/05/21 05:30:18;;;;;;;0.80;0.10;;;17.50;83.50;;;16.51;54.59;100970.72;4988479;28;20038;-57
2021/05/21 05:32:44;;;;;;;0.47;0.10;;;18.90;76.80;;;17.05;53.30;100963.69;4970422;28;20509;-55
2021/05/21 05:35:11;;;;;;;0.85;0.10;;;19.50;72.80;;;17.53;51.05;100967.78;4960060;28;20117;-53
2021/05/21 05:37:37;;;;;;;1.15;0.30;;;20.40;68.40;;;17.54;52.18;100956.25;4987523;28;20093;-51
2021/05/21 05:40:07;;;;;;;1.42;0.30;;;20.30;68.30;;;18.11;51.31;100957.53;4988686;28;20494;-57
2021/05/21 05:42:33;;;;;;;0.57;0.20;;;20.80;67.20;;;19.48;48.76;100944.25;4987948;28;20053;-53
2021/05/21 05:44:59;;;;;;;0.73;0.20;;;22.70;62.30;;;19.76;47.93;100954.88;4988668;28;20030;-58
2021/05/21 05:47:25;;;;;;;4.72;0.20;;;23.70;57.60;;;19.80;47.43;100952.69;4987703;28;20397;-49
2021/05/21 05:49:50;;;;;;;1.90;0.35;;;23.40;57.10;;;19.72;47.80;100948.34;4980782;28;20040;-54
2021/05/21 05:52:16;;;;;;;2.72;0.30;;;23.50;55.70;;;19.78;47.03;100947.59;4988548;28;20049;-54
2021/05/21 05:54:44;;;;;;;5.22;0.30;;;23.40;55.00;;;19.93;46.52;100934.22;4988019;28;20659;-51
2021/05/21 05:57:09;;;;;;;1.33;0.10;;;23.60;55.70;;;20.40;46.01;100940.59;4988379;28;20034;-53
2021/05/21 05:59:36;;;;;;;1.10;0.10;;;24.10;54.10;;;20.02;46.10;100938.34;4987723;28;20031;-51
2021/05/21 06:02:02;;;;;;;1.10;0.30;;;24.00;53.50;;;19.78;46.47;100947.59;4970599;28;20045;-51
2021/05/21 06:04:28;;;;;;;2.33;0.25;;;23.80;52.70;;;19.79;46.88;100943.94;4987695;28;20161;-50
2021/05/21 06:06:54;;;;;;;2.78;0.30;;;23.60;53.90;;;20.67;45.01;100942.34;4980916;28;20137;-57
2021/05/21 06:09:20;;;;;;;0.63;0.10;;;24.20;53.60;;;20.81;44.03;100936.06;4985263;28;20042;-51
2021/05/21 06:11:46;;;;;;;0.85;0.20;;;25.00;51.10;;;20.58;44.34;100930.31;4988094;28;20122;-55
2021/05/21 06:14:12;;;;;;;1.50;0.08;;;25.00;50.00;;;20.74;43.62;100937.06;4979525;28;20048;-55
2021/05/21 06:16:38;;;;;;;0.60;0.10;;;24.90;49.80;;;20.79;43.80;100939.94;4987929;28;20113;-54
2021/05/21 06:19:04;;;;;;;3.15;0.55;;;24.70;50.40;;;21.13;43.31;100941.63;4988209;28;20117;-55
2021/05/21 06:21:31;;;;;;;1.35;0.10;;;25.10;50.70;;;20.59;44.02;100941.72;4976345;23;20066;-54
2021/05/21 06:23:57;;;;;;;0.77;0.10;;;24.90;49.60;;;20.66;44.21;100935.41;4967083;28;20062;-55
2021/05/21 06:28:53;;;;;;;0.65;0.10;;;24.70;50.00;;;20.68;44.35;100943.97;4966842;28;20053;-54
2021/05/21 06:31:21;;;;;;;0.17;0.00;;;24.70;50.30;;;20.65;44.34;100943.56;4968132;28;20035;-55
2021/05/21 06:33:47;;;;;;;0.15;0.00;;;24.80;50.60;;;20.63;44.31;100950.88;4967929;28;20892;-56
2021/05/21 06:36:13;;;;;;;0.88;0.10;;;24.70;50.30;;;20.47;44.78;100958.16;4968626;28;20064;-51
2021/05/21 06:38:40;;;;;;;2.67;0.10;;;24.50;50.80;;;21.29;43.79;100951.03;4968219;28;20046;-56
2021/05/21 06:41:08;;;;;;;1.58;0.10;;;25.10;50.60;;;21.68;42.33;100955.53;4967584;28;20031;-49
2021/05/21 06:43:34;;;;;;;0.77;0.20;;;26.00;48.30;;;21.61;42.28;100946.78;4967964;28;20023;-54
2021/05/21 06:46:01;;;;;;;2.38;0.10;;;26.00;48.50;;;21.62;41.88;100948.41;4967709;28;20039;-52
2021/05/21 06:48:34;;;;;;;0.30;0.08;;;25.70;48.40;;;21.34;43.06;100945.94;4967982;28;20031;-57
2021/05/21 06:51:03;;;;;;;1.17;0.10;;;25.10;49.70;;;21.31;42.78;100941.88;4967989;28;20038;-55
2021/05/21 06:53:30;;;;;;;3.30;0.47;;;25.20;48.90;;;21.33;42.76;100936.34;4968356;28;20037;-57
2021/05/21 06:55:57;;;;;;;0.55;0.10;;;25.30;49.50;;;21.50;42.07;100937.59;4967482;28;20074;-58
2021/05/21 06:58:25;;;;;;;0.47;0.10;;;25.40;48.50;;;22.00;41.41;100935.28;4968353;28;20027;-59
2021/05/21 07:00:53;;;;;;;0.82;0.10;;;26.10;48.40;;;21.98;40.75;100940.78;4950299;28;20398;-58
2021/05/21 07:03:19;;;;;;;2.50;0.10;;;26.30;46.40;;;21.21;41.48;100928.22;4967998;28;20174;-59
2021/05/21 07:05:47;;;;;;;0.95;0.10;;;25.70;46.70;;;21.60;39.98;100931.88;4967966;28;20112;-58
2021/05/21 07:08:14;;;;;;;0.20;0.00;;;25.70;46.50;;;21.71;39.86;100920.66;4967679;28;20027;-54
2021/05/21 07:10:40;;;;;;;0.73;0.10;;;25.90;46.30;;;22.09;38.91;100921.63;4967588;28;20042;-55
2021/05/21 07:13:12;;;;;;;1.30;0.00;;;26.30;45.60;;;22.79;37.20;100924.38;4967599;28;20494;-53
2021/05/21 07:15:38;;;;;;;0.10;0.00;;;27.30;44.30;;;22.65;36.88;100920.97;4967820;28;20039;-52
2021/05/21 07:18:06;;;;;;;0.75;0.10;;;27.10;43.90;;;22.01;37.16;100921.00;4949776;28;20066;-52
2021/05/21 07:20:33;;;;;;;1.50;0.10;;;25.30;46.40;;;20.83;40.29;100919.97;4965524;28;20049;-51
2021/05/21 07:22:59;;;;;;;1.65;0.10;;;22.90;51.00;;;20.03;41.95;100924.13;4965375;28;20066;-55
2021/05/21 07:25:25;;;;;;;1.23;0.10;;;21.50;53.60;;;20.07;41.45;100925.38;4967944;28;20113;-54
2021/05/21 07:27:51;;;;;;;4.13;0.10;;;20.90;54.70;;;19.82;41.69;100921.56;4967882;28;20578;-54
2021/05/21 07:30:19;;;;;;;0.40;0.20;;;20.50;55.30;;;19.65;41.75;100914.94;4967594;28;20106;-53
2021/05/21 07:32:45;;;;;;;1.70;0.10;;;20.40;55.40;;;19.84;41.19;100930.13;4967793;28;20046;-53
2021/05/21 07:35:12;;;;;;;0.45;0.10;;;20.30;55.40;;;19.93;41.35;100931.59;4967012;28;20049;-51
2021/05/21 07:37:38;;;;;;;1.55;0.20;;;20.40;55.60;;;20.03;40.07;100929.41;4952501;28;20062;-50
2021/05/21 07:40:06;;;;;;;1.65;0.10;;;20.50;53.40;;;19.75;39.92;100932.09;4970867;28;20573;-51
2021/05/21 07:42:34;;;;;;;0.65;0.10;;;20.50;53.70;;;20.18;39.59;100938.06;4971715;28;20031;-55
2021/05/21 07:45:00;;;;;;;1.85;0.10;;;20.50;54.40;;;21.07;38.42;100934.47;4971184;28;20041;-54
2021/05/21 07:47:26;;;;;;;1.10;0.10;;;21.20;54.30;;;20.92;37.74;100933.84;4970546;28;20273;-55
2021/05/21 07:49:52;;;;;;;1.48;0.10;;;21.30;52.80;;;21.11;38.07;100927.78;4971874;28;20457;-56
2021/05/21 07:52:18;;;;;;;0.82;0.10;;;21.40;52.70;;;21.02;37.30;100934.28;4971217;28;20117;-52
2021/05/21 07:54:44;;;;;;;2.25;0.10;;;21.40;51.70;;;21.18;37.35;100918.81;4970856;28;20192;-55
2021/05/21 07:57:11;;;;;;;0.57;0.00;;;21.60;52.00;;;22.08;36.80;100927.94;4970474;28;20042;-55
2021/05/21 07:59:38;;;;;;;0.30;0.00;;;22.30;52.10;;;22.46;35.11;100927.19;4971191;28;20410;-51
2021/05/21 08:02:05;;;;;;;0.73;0.00;;;22.70;50.70;;;22.49;34.46;100926.75;4971056;28;20467;-50
2021/05/21 08:04:31;;;;;;;0.13;0.05;;;22.90;48.80;;;22.80;33.77;100921.50;4970565;28;20041;-54
2021/05/21 08:06:57;;;;;;;0.20;0.00;;;23.10;48.90;;;22.82;34.24;100922.09;4970609;28;20027;-55
2021/05/21 08:09:23;;;;;;;1.02;0.00;;;23.40;48.70;;;22.91;34.08;100919.19;4970172;28;20133;-55
2021/05/21 08:11:50;;;;;;;0.35;0.00;;;23.50;48.60;;;23.03;34.29;100914.81;4971081;28;20082;-53
2021/05/21 08:14:16;;;;;;;0.50;0.00;;;23.50;49.10;;;23.59;33.62;100916.66;4970112;28;20054;-48
2021/05/21 08:16:42;;;;;;;0.20;0.00;;;23.80;48.80;;;23.68;32.32;100913.47;4971037;28;20038;-54
2021/05/21 08:19:08;;;;;;;0.38;0.00;;;24.30;46.60;;;24.15;31.14;100914.59;4970567;28;20045;-52
2021/05/21 08:21:35;;;;;;;0.55;0.00;;;24.50;46.40;;;24.10;30.41;100900.34;4969953;28;20055;-53
2021/05/21 08:24:01;;;;;;;0.05;0.00;;;24.60;45.30;;;23.97;30.08;100903.97;4970474;28;20126;-49
2021/05/21 08:26:27;;;;;;;0.20;0.00;;;24.70;44.30;;;23.81;30.79;100896.56;4970226;28;20035;-53
2021/05/21 08:28:54;;;;;;;0.20;0.00;;;24.30;45.50;;;23.89;31.21;100898.13;4970463;28;20541;-55
2021/05/21 08:31:21;;;;;;;0.80;0.10;;;24.50;45.60;;;23.96;31.13;100910.31;4970054;28;20448;-47
2021/05/21 08:33:48;;;;;;;0.30;0.00;;;24.60;45.30;;;23.75;30.63;100908.91;4970528;28;20035;-47
2021/05/21 08:36:15;;;;;;;0.10;0.00;;;24.60;44.40;;;23.01;30.12;100903.59;4970156;28;20046;-50
2021/05/21 08:38:45;;;;;;;1.27;0.00;;;24.20;42.90;;;23.09;30.66;100901.50;4969963;28;20125;-48
2021/05/21 08:41:30;;;;;;;3.05;0.20;;;23.80;44.10;;;23.24;29.53;100898.50;4970323;28;20038;-47
2021/05/21 08:43:57;;;;;;;0.70;0.00;;;23.90;44.00;;;23.57;31.06;100897.44;4968187;28;20117;-51
2021/05/21 08:46:27;;;;;;;0.15;0.00;;;24.20;45.10;;;23.87;30.43;100893.00;4969737;28;20034;-52
2021/05/21 08:49:00;;;;;;;0.15;0.00;;;24.40;44.60;;;23.89;28.32;100888.28;4969582;28;20027;-54
2021/05/21 08:51:29;;;;;;;3.33;0.10;;;24.60;42.70;;;23.73;28.95;100891.53;4969843;28;20104;-54
2021/05/21 08:53:56;;;;;;;0.10;0.00;;;24.50;42.20;;;23.72;28.92;100889.91;4970059;28;20093;-53
2021/05/21 08:56:23;;;;;;;0.20;0.00;;;24.50;43.00;;;23.96;28.47;100890.88;4969702;28;20034;-54
2021/05/21 08:58:49;;;;;;;2.03;0.00;;;24.70;42.70;;;23.94;28.46;100893.75;4969669;28;20042;-50
2021/05/21 09:01:15;;;;;;;0.35;0.00;;;24.70;42.40;;;23.91;29.04;100894.19;4970360;28;20482;-52
2021/05/21 09:03:46;;;;;;;0.17;0.00;;;24.70;42.60;;;23.85;29.23;100886.28;4967610;28;20065;-50
2021/05/21 09:06:19;;;;;;;2.15;0.00;;;24.70;42.70;;;24.21;28.42;100890.78;4969821;28;20035;-52
2021/05/21 09:08:58;;;;;;;0.20;0.00;;;24.80;42.60;;;24.10;27.88;100893.13;4969401;28;20035;-50
2021/05/21 09:11:40;;;;;;;0.28;0.10;;;24.80;42.50;;;24.20;28.68;100897.13;4952336;28;20104;-54
2021/05/21 09:14:18;;;;;;;2.45;0.00;;;24.90;42.80;;;23.99;27.87;100885.94;4969534;28;20102;-52
2021/05/21 09:16:47;;;;;;;0.35;0.00;;;24.80;42.60;;;23.95;29.24;100884.75;4969714;28;20042;-53
2021/05/21 09:19:20;;;;;;;4.43;0.82;;;24.60;42.90;;;24.13;29.12;100883.91;4969212;28;20031;-53
2021/05/21 09:22:08;;;;;;;3.38;0.10;;;24.90;43.00;;;24.16;28.09;100873.63;4969356;28;20047;-49
2021/05/21 09:24:43;;;;;;;1.27;0.10;;;25.00;41.50;;;24.24;29.46;100871.69;4969167;28;20096;-49
2021/05/21 09:27:11;;;;;;;1.55;0.08;;;25.00;43.20;;;24.14;29.65;100862.38;4969490;28;20037;-51
2021/05/21 09:29:53;;;;;;;0.60;0.08;;;25.00;42.90;;;23.98;29.03;100855.03;4968525;28;20407;-53
2021/05/21 09:32:25;;;;;;;0.60;0.00;;;24.90;42.40;;;23.96;29.32;100848.31;4969229;28;20046;-52
2021/05/21 09:35:12;;;;;;;0.30;0.00;;;24.90;42.70;;;24.03;28.27;100835.72;4970009;28;20051;-49
2021/05/21 09:37:58;;;;;;;0.20;0.10;;;24.90;41.70;;;23.86;28.83;100821.41;4970068;28;20133;-50
2021/05/21 09:40:27;;;;;;;0.15;0.00;;;24.70;42.30;;;23.79;29.78;100808.16;4969035;28;20141;-56
2021/05/21 09:42:58;;;;;;;0.40;0.05;;;24.60;43.20;;;24.12;29.47;100816.53;4969087;28;20035;-48
2021/05/21 09:45:35;;;;;;;1.95;0.10;;;24.80;43.30;;;23.86;29.52;100824.06;4969442;28;20035;-49
2021/05/21 09:48:07;;;;;;;0.32;0.10;;;24.70;43.10;;;23.79;29.75;100832.13;4969676;28;20054;-48
2021/05/21 09:50:36;;;;;;;0.52;0.20;;;24.50;43.60;;;24.06;29.40;100824.63;4969656;28;20046;-52
2021/05/21 09:53:20;;;;;;;0.32;0.10;;;24.70;43.40;;;24.00;29.65;100828.19;4968712;28;20716;-50
2021/05/21 09:56:01;;;;;;;1.95;0.10;;;24.80;43.30;;;24.02;29.56;100831.44;4966743;28;20097;-56
2021/05/21 09:58:36;;;;;;;0.57;0.10;;;24.80;43.30;;;24.19;30.06;100842.25;4969177;28;20089;-55
2021/05/21 10:01:20;;;;;;;0.52;0.00;;;24.90;43.70;;;24.13;29.64;100851.97;4968154;28;20450;-53
2021/05/21 10:03:46;;;;;;;1.83;0.10;;;24.70;43.90;;;24.10;30.36;100860.41;4968728;28;20122;-50
2021/05/21 10:06:14;;;;;;;0.80;0.10;;;24.80;44.60;;;24.28;29.58;100844.44;4969072;28;20455;-54
2021/05/21 10:08:42;;;;;;;0.40;0.10;;;24.90;43.30;;;24.27;30.31;100842.00;4951528;28;20038;-51
2021/05/21 10:11:09;;;;;;;5.22;0.22;;;24.80;44.00;;;24.27;30.25;100856.13;4967903;28;20038;-49
2021/05/21 10:13:37;;;;;;;2.22;0.10;;;24.80;44.10;;;24.66;29.67;100859.25;4968720;28;20069;-49
2021/05/21 10:16:06;;;;;;;0.88;0.10;;;25.00;44.40;;;25.02;29.76;100867.13;4968521;28;20300;-50
2021/05/21 10:18:35;;;;;;;0.30;0.03;;;25.30;44.40;;;24.69;30.35;100854.28;4951037;28;20027;-52
2021/05/21 10:21:03;;;;;;;0.52;0.10;;;25.30;44.60;;;24.20;30.99;100849.22;4968202;28;20050;-52
2021/05/21 10:23:44;;;;;;;0.88;0.10;;;24.90;44.60;;;24.04;31.47;100848.81;4969005;28;20039;-54